sensor_id;sensor_type;location;lat;lon;timestamp;pressure;altitude;pressure_sealevel;temperature;humidity
2036;BME280;23642;42.658;23.350;2023-03-19T00:02:22;52134.25;;;-146.31;89.45
2036;BME280;23642;42.658;23.350;2023-03-19T00:04:48;51907.28;;;-146.31;90.68
2036;BME280;23642;42.658;23.350;2023-03-19T00:07:17;51731.91;;;-146.31;91.26
2036;BME280;23642;42.658;23.350;2023-03-19T00:09:43;51575.13;;;-146.31;91.19
2036;BME280;23642;42.658;23.350;2023-03-19T00:12:12;51403.88;;;-146.31;92.01
2036;BME280;23642;42.658;23.350;2023-03-19T00:14:39;51242.97;;;-146.31;92.17
2036;BME280;23642;42.658;23.350;2023-03-19T00:17:06;51063.50;;;-146.31;92.51
2036;BME280;23642;42.658;23.350;2023-03-19T00:19:33;50956.25;;;-146.31;92.42
2036;BME280;23642;42.658;23.350;2023-03-19T00:22:00;50886.13;;;-146.31;92.26
2036;BME280;23642;42.658;23.350;2023-03-19T00:24:28;50768.56;;;-146.31;92.34
2036;BME280;23642;42.658;23.350;2023-03-19T00:26:55;50677.81;;;-146.31;92.65
2036;BME280;23642;42.658;23.350;2023-03-19T00:29:23;50570.56;;;-146.31;92.70
2036;BME280;23642;42.658;23.350;2023-03-19T00:31:49;50450.94;;;-146.31;92.95
2036;BME280;23642;42.658;23.350;2023-03-19T00:34:17;50430.31;;;-146.31;92.69
2036;BME280;23642;42.658;23.350;2023-03-19T00:36:44;50436.50;;;-146.31;92.54
2036;BME280;23642;42.658;23.350;2023-03-19T00:39:11;50314.81;;;-146.31;93.10
2036;BME280;23642;42.658;23.350;2023-03-19T00:41:39;50263.25;;;-146.31;93.03
2036;BME280;23642;42.658;23.350;2023-03-19T00:44:06;50176.63;;;-146.31;93.50
2036;BME280;23642;42.658;23.350;2023-03-19T00:46:33;50069.41;;;-146.31;93.15
2036;BME280;23642;42.658;23.350;2023-03-19T00:49:00;50189.00;;;-146.31;92.34
2036;BME280;23642;42.658;23.350;2023-03-19T00:51:27;50191.06;;;-146.31;92.42
2036;BME280;23642;42.658;23.350;2023-03-19T00:53:53;50127.16;;;-146.31;92.99
2036;BME280;23642;42.658;23.350;2023-03-19T00:56:20;50032.28;;;-146.31;93.27
2036;BME280;23642;42.658;23.350;2023-03-19T00:58:48;49964.25;;;-146.31;93.19
2036;BME280;23642;42.658;23.350;2023-03-19T01:01:16;49991.03;;;-146.31;93.09
2036;BME280;23642;42.658;23.350;2023-03-19T01:03:44;49910.63;;;-146.31;93.59
2036;BME280;23642;42.658;23.350;2023-03-19T01:06:12;49836.38;;;-146.31;93.96
2036;BME280;23642;42.658;23.350;2023-03-19T01:08:38;49755.97;;;-146.31;93.84
2036;BME280;23642;42.658;23.350;2023-03-19T01:11:07;49617.81;;;-146.31;94.39
2036;BME280;23642;42.658;23.350;2023-03-19T01:13:34;49401.34;;;-146.31;94.86
2036;BME280;23642;42.658;23.350;2023-03-19T01:16:03;49261.13;;;-146.31;95.27
2036;BME280;23642;42.658;23.350;2023-03-19T01:18:31;49094.16;;;-146.31;95.49
2036;BME280;23642;42.658;23.350;2023-03-19T01:20:57;48982.81;;;-146.31;95.76
2036;BME280;23642;42.658;23.350;2023-03-19T01:23:24;48848.81;;;-146.31;96.00
2036;BME280;23642;42.658;23.350;2023-03-19T01:25:51;48819.97;;;-146.31;95.71
2036;BME280;23642;42.658;23.350;2023-03-19T01:28:18;48764.31;;;-146.31;95.89
2036;BME280;23642;42.658;23.350;2023-03-19T01:30:45;48712.78;;;-146.31;95.96
2036;BME280;23642;42.658;23.350;2023-03-19T01:33:13;48698.34;;;-146.31;95.72
2036;BME280;23642;42.658;23.350;2023-03-19T01:35:41;48642.69;;;-146.31;95.94
2036;BME280;23642;42.658;23.350;2023-03-19T01:38:08;48564.34;;;-146.31;96.01
2036;BME280;23642;42.658;23.350;2023-03-19T01:40:35;48461.31;;;-146.31;96.01
2036;BME280;23642;42.658;23.350;2023-03-19T01:43:13;48420.06;;;-146.31;96.04
2036;BME280;23642;42.658;23.350;2023-03-19T01:45:42;48364.44;;;-146.31;96.19
2036;BME280;23642;42.658;23.350;2023-03-19T01:48:18;48378.84;;;-146.31;96.07
2036;BME280;23642;42.658;23.350;2023-03-19T01:50:46;48391.22;;;-146.31;96.03
2036;BME280;23642;42.658;23.350;2023-03-19T01:53:16;48444.81;;;-146.31;95.56
2036;BME280;23642;42.658;23.350;2023-03-19T01:55:44;48531.38;;;-146.31;95.21
2036;BME280;23642;42.658;23.350;2023-03-19T01:58:12;48580.84;;;-146.31;95.04
2036;BME280;23642;42.658;23.350;2023-03-19T02:00:39;48638.56;;;-146.31;95.13
2036;BME280;23642;42.658;23.350;2023-03-19T02:03:06;48597.34;;;-146.31;95.29
2036;BME280;23642;42.658;23.350;2023-03-19T02:05:36;48593.22;;;-146.31;95.16
2036;BME280;23642;42.658;23.350;2023-03-19T02:08:06;48630.31;;;-146.31;94.95
2036;BME280;23642;42.658;23.350;2023-03-19T02:10:35;48671.53;;;-146.31;94.76
2036;BME280;23642;42.658;23.350;2023-03-19T02:13:02;48743.69;;;-146.31;94.75
2036;BME280;23642;42.658;23.350;2023-03-19T02:15:29;48754.00;;;-146.31;94.61
2036;BME280;23642;42.658;23.350;2023-03-19T02:17:56;48650.94;;;-146.31;95.21
2036;BME280;23642;42.658;23.350;2023-03-19T02:20:26;48725.13;;;-146.31;94.86
2036;BME280;23642;42.658;23.350;2023-03-19T02:23:04;48766.38;;;-146.31;94.53
2036;BME280;23642;42.658;23.350;2023-03-19T02:25:39;48815.84;;;-146.31;94.10
2036;BME280;23642;42.658;23.350;2023-03-19T02:28:10;48865.31;;;-146.31;94.03
2036;BME280;23642;42.658;23.350;2023-03-19T02:30:38;48941.59;;;-146.31;93.51
2036;BME280;23642;42.658;23.350;2023-03-19T02:33:05;49001.38;;;-146.31;93.47
2036;BME280;23642;42.658;23.350;2023-03-19T02:35:33;49092.09;;;-146.31;92.99
2036;BME280;23642;42.658;23.350;2023-03-19T02:38:02;49046.72;;;-146.31;93.64
2036;BME280;23642;42.658;23.350;2023-03-19T02:40:33;48873.56;;;-146.31;94.57
2036;BME280;23642;42.658;23.350;2023-03-19T02:43:02;48659.19;;;-146.31;95.36
2036;BME280;23642;42.658;23.350;2023-03-19T02:45:30;48455.13;;;-146.31;96.13
2036;BME280;23642;42.658;23.350;2023-03-19T02:47:57;48329.38;;;-146.31;96.19
2036;BME280;23642;42.658;23.350;2023-03-19T02:50:24;48230.44;;;-146.31;96.59
2036;BME280;23642;42.658;23.350;2023-03-19T02:52:52;48096.50;;;-146.31;97.06
2036;BME280;23642;42.658;23.350;2023-03-19T02:55:19;47935.75;;;-146.31;97.24
2036;BME280;23642;42.658;23.350;2023-03-19T02:57:45;47828.56;;;-146.31;97.10
2036;BME280;23642;42.658;23.350;2023-03-19T03:00:14;47772.94;;;-146.31;97.30
2036;BME280;23642;42.658;23.350;2023-03-19T03:02:43;47713.16;;;-146.31;97.86
2036;BME280;23642;42.658;23.350;2023-03-19T03:05:10;47636.94;;;-146.31;97.71
2036;BME280;23642;42.658;23.350;2023-03-19T03:07:37;47606.00;;;-146.31;97.31
2036;BME280;23642;42.658;23.350;2023-03-19T03:10:05;47599.84;;;-146.31;97.17
2036;BME280;23642;42.658;23.350;2023-03-19T03:12:33;47511.22;;;-146.31;97.52
2036;BME280;23642;42.658;23.350;2023-03-19T03:14:59;47362.88;;;-146.31;98.40
2036;BME280;23642;42.658;23.350;2023-03-19T03:17:26;47284.56;;;-146.31;98.33
2036;BME280;23642;42.658;23.350;2023-03-19T03:19:55;47278.38;;;-146.31;98.08
2036;BME280;23642;42.658;23.350;2023-03-19T03:22:22;47389.66;;;-146.31;97.76
2036;BME280;23642;42.658;23.350;2023-03-19T03:24:49;47492.69;;;-146.31;97.28
2036;BME280;23642;42.658;23.350;2023-03-19T03:27:15;47671.97;;;-146.31;96.73
2036;BME280;23642;42.658;23.350;2023-03-19T03:29:42;47890.41;;;-146.31;95.92
2036;BME280;23642;42.658;23.350;2023-03-19T03:32:09;47948.09;;;-146.31;95.77
2036;BME280;23642;42.658;23.350;2023-03-19T03:34:36;47950.16;;;-146.31;95.96
2036;BME280;23642;42.658;23.350;2023-03-19T03:37:05;48096.50;;;-146.31;95.04
2036;BME280;23642;42.658;23.350;2023-03-19T03:39:33;48191.28;;;-146.31;94.79
2036;BME280;23642;42.658;23.350;2023-03-19T03:42:00;48203.66;;;-146.31;95.31
2036;BME280;23642;42.658;23.350;2023-03-19T03:44:27;48117.09;;;-146.31;95.60
2036;BME280;23642;42.658;23.350;2023-03-19T03:46:53;48073.81;;;-146.31;95.86
2036;BME280;23642;42.658;23.350;2023-03-19T03:49:21;48001.69;;;-146.31;96.14
2036;BME280;23642;42.658;23.350;2023-03-19T03:51:48;47950.16;;;-146.31;96.19
2036;BME280;23642;42.658;23.350;2023-03-19T03:54:16;47843.00;;;-146.31;96.79
2036;BME280;23642;42.658;23.350;2023-03-19T03:56:43;47702.88;;;-146.31;97.29
2036;BME280;23642;42.658;23.350;2023-03-19T03:59:10;47566.88;;;-146.31;97.49
2036;BME280;23642;42.658;23.350;2023-03-19T04:01:37;47461.78;;;-146.31;97.38
2036;BME280;23642;42.658;23.350;2023-03-19T04:04:04;47373.16;;;-146.31;97.94
2036;BME280;23642;42.658;23.350;2023-03-19T04:06:30;47247.47;;;-146.31;98.15
2036;BME280;23642;42.658;23.350;2023-03-19T04:08:57;47150.63;;;-146.31;98.14
2036;BME280;23642;42.658;23.350;2023-03-19T04:11:25;47053.81;;;-146.31;98.36
2036;BME280;23642;42.658;23.350;2023-03-19T04:13:53;46915.75;;;-146.31;98.52
2036;BME280;23642;42.658;23.350;2023-03-19T04:16:21;46823.06;;;-146.31;98.90
2036;BME280;23642;42.658;23.350;2023-03-19T04:18:48;46724.16;;;-146.31;98.83
2036;BME280;23642;42.658;23.350;2023-03-19T04:21:15;46691.22;;;-146.31;99.03
2036;BME280;23642;42.658;23.350;2023-03-19T04:23:42;46643.81;;;-146.31;98.96
2036;BME280;23642;42.658;23.350;2023-03-19T04:26:09;46577.91;;;-146.31;99.01
2036;BME280;23642;42.658;23.350;2023-03-19T04:28:38;46532.59;;;-146.31;99.68
2036;BME280;23642;42.658;23.350;2023-03-19T04:31:06;46437.81;;;-146.31;99.39
2036;BME280;23642;42.658;23.350;2023-03-19T04:33:33;46376.03;;;-146.31;99.61
2036;BME280;23642;42.658;23.350;2023-03-19T04:36:00;46326.59;;;-146.31;99.41
2036;BME280;23642;42.658;23.350;2023-03-19T04:38:28;46260.66;;;-146.31;99.87
2036;BME280;23642;42.658;23.350;2023-03-19T04:40:55;46203.00;;;-146.31;99.96
2036;BME280;23642;42.658;23.350;2023-03-19T04:43:22;46174.16;;;-146.31;99.82
2036;BME280;23642;42.658;23.350;2023-03-19T04:45:50;46161.81;;;-146.31;99.73
2036;BME280;23642;42.658;23.350;2023-03-19T04:48:17;46147.38;;;-146.31;100.00
2036;BME280;23642;42.658;23.350;2023-03-19T04:50:44;46145.31;;;-146.31;99.57
2036;BME280;23642;42.658;23.350;2023-03-19T04:53:11;46165.91;;;-146.31;99.86
2036;BME280;23642;42.658;23.350;2023-03-19T04:55:38;46180.34;;;-146.31;99.64
2036;BME280;23642;42.658;23.350;2023-03-19T04:58:05;46194.75;;;-146.31;99.99
2036;BME280;23642;42.658;23.350;2023-03-19T05:00:33;46227.72;;;-146.31;99.61
2036;BME280;23642;42.658;23.350;2023-03-19T05:03:01;46316.28;;;-146.31;99.69
2036;BME280;23642;42.658;23.350;2023-03-19T05:05:28;46398.69;;;-146.31;99.26
2036;BME280;23642;42.658;23.350;2023-03-19T05:07:55;46491.38;;;-146.31;98.97
2036;BME280;23642;42.658;23.350;2023-03-19T05:10:22;46643.81;;;-146.31;98.42
2036;BME280;23642;42.658;23.350;2023-03-19T05:12:49;46829.25;;;-146.31;97.85
2036;BME280;23642;42.658;23.350;2023-03-19T05:15:16;47004.34;;;-146.31;97.51
2036;BME280;23642;42.658;23.350;2023-03-19T05:17:46;47119.72;;;-146.31;97.03
2036;BME280;23642;42.658;23.350;2023-03-19T05:20:14;47228.94;;;-146.31;96.65
2036;BME280;23642;42.658;23.350;2023-03-19T05:22:42;47674.03;;;-146.31;94.50
2036;BME280;23642;42.658;23.350;2023-03-19T05:25:09;47921.31;;;-146.31;93.15
2036;BME280;23642;42.658;23.350;2023-03-19T05:27:35;48269.63;;;-146.31;92.20
2036;BME280;23642;42.658;23.350;2023-03-19T05:30:03;48634.44;;;-146.31;90.60
2036;BME280;23642;42.658;23.350;2023-03-19T05:32:30;48737.50;;;-146.31;91.08
2036;BME280;23642;42.658;23.350;2023-03-19T05:34:57;48760.19;;;-146.31;90.87
2036;BME280;23642;42.658;23.350;2023-03-19T05:37:25;48908.59;;;-146.31;90.19
2036;BME280;23642;42.658;23.350;2023-03-19T05:39:52;49269.38;;;-146.31;87.81
2036;BME280;23642;42.658;23.350;2023-03-19T05:42:19;49669.38;;;-146.31;85.12
2036;BME280;23642;42.658;23.350;2023-03-19T05:44:45;49821.97;;;-146.31;85.09
2036;BME280;23642;42.658;23.350;2023-03-19T05:47:12;50083.84;;;-146.31;82.67
2036;BME280;23642;42.658;23.350;2023-03-19T05:49:39;50261.19;;;-146.31;82.52
2036;BME280;23642;42.658;23.350;2023-03-19T05:52:06;50351.94;;;-146.31;81.95
2036;BME280;23642;42.658;23.350;2023-03-19T05:54:34;50440.63;;;-146.31;81.92
2036;BME280;23642;42.658;23.350;2023-03-19T05:57:01;50535.50;;;-146.31;81.30
2036;BME280;23642;42.658;23.350;2023-03-19T05:59:28;50613.88;;;-146.31;81.17
2036;BME280;23642;42.658;23.350;2023-03-19T06:01:55;50704.63;;;-146.31;80.09
2036;BME280;23642;42.658;23.350;2023-03-19T06:04:22;50768.56;;;-146.31;79.64
2036;BME280;23642;42.658;23.350;2023-03-19T06:06:49;50818.06;;;-146.31;79.82
2036;BME280;23642;42.658;23.350;2023-03-19T06:09:16;50836.63;;;-146.31;79.75
2036;BME280;23642;42.658;23.350;2023-03-19T06:11:44;50943.88;;;-146.31;80.05
2036;BME280;23642;42.658;23.350;2023-03-19T06:14:11;50941.81;;;-146.31;79.80
2036;BME280;23642;42.658;23.350;2023-03-19T06:16:38;50981.00;;;-146.31;79.52
2036;BME280;23642;42.658;23.350;2023-03-19T06:19:04;51018.13;;;-146.31;78.40
2036;BME280;23642;42.658;23.350;2023-03-19T06:21:31;51063.50;;;-146.31;78.36
2036;BME280;23642;42.658;23.350;2023-03-19T06:23:58;51135.72;;;-146.31;77.82
2036;BME280;23642;42.658;23.350;2023-03-19T06:26:25;51179.03;;;-146.31;77.54
2036;BME280;23642;42.658;23.350;2023-03-19T06:28:54;51226.47;;;-146.31;77.24
2036;BME280;23642;42.658;23.350;2023-03-19T06:31:21;51321.38;;;-146.31;75.61
2036;BME280;23642;42.658;23.350;2023-03-19T06:33:47;51356.44;;;-146.31;76.60
2036;BME280;23642;42.658;23.350;2023-03-19T06:36:14;51377.06;;;-146.31;76.32
2036;BME280;23642;42.658;23.350;2023-03-19T06:38:42;51405.94;;;-146.31;75.17
2036;BME280;23642;42.658;23.350;2023-03-19T06:41:08;51575.13;;;-146.31;73.49
2036;BME280;23642;42.658;23.350;2023-03-19T06:43:35;51606.06;;;-146.31;73.97
2036;BME280;23642;42.658;23.350;2023-03-19T06:46:07;51637.00;;;-146.31;72.83
2036;BME280;23642;42.658;23.350;2023-03-19T06:48:35;51748.44;;;-146.31;72.22
2036;BME280;23642;42.658;23.350;2023-03-19T06:51:02;51744.31;;;-146.31;73.50
2036;BME280;23642;42.658;23.350;2023-03-19T06:53:29;51820.63;;;-146.31;71.92
2036;BME280;23642;42.658;23.350;2023-03-19T06:55:55;51866.03;;;-146.31;72.15
2036;BME280;23642;42.658;23.350;2023-03-19T06:58:22;51868.09;;;-146.31;71.77
2036;BME280;23642;42.658;23.350;2023-03-19T07:00:49;51913.47;;;-146.31;71.18
2036;BME280;23642;42.658;23.350;2023-03-19T07:03:17;51967.13;;;-146.31;71.99
2036;BME280;23642;42.658;23.350;2023-03-19T07:05:44;51989.81;;;-146.31;71.53
2036;BME280;23642;42.658;23.350;2023-03-19T07:08:11;52002.22;;;-146.31;71.36
2036;BME280;23642;42.658;23.350;2023-03-19T07:10:38;52049.66;;;-146.31;71.79
2036;BME280;23642;42.658;23.350;2023-03-19T07:13:05;52033.16;;;-146.31;71.77
2036;BME280;23642;42.658;23.350;2023-03-19T07:15:32;52059.97;;;-146.31;70.62
2036;BME280;23642;42.658;23.350;2023-03-19T07:18:00;52084.75;;;-146.31;70.47
2036;BME280;23642;42.658;23.350;2023-03-19T07:20:28;52119.81;;;-146.31;68.70
2036;BME280;23642;42.658;23.350;2023-03-19T07:22:56;52192.03;;;-146.31;67.83
2036;BME280;23642;42.658;23.350;2023-03-19T07:25:22;52272.50;;;-146.31;66.93
2036;BME280;23642;42.658;23.350;2023-03-19T07:27:49;52338.56;;;-146.31;66.31
2036;BME280;23642;42.658;23.350;2023-03-19T07:30:16;52394.25;;;-146.31;66.53
2036;BME280;23642;42.658;23.350;2023-03-19T07:32:43;52400.47;;;-146.31;66.09
2036;BME280;23642;42.658;23.350;2023-03-19T07:35:10;52497.44;;;-146.31;65.13
2036;BME280;23642;42.658;23.350;2023-03-19T07:37:40;52582.06;;;-146.31;64.02
2036;BME280;23642;42.658;23.350;2023-03-19T07:40:09;52606.81;;;-146.31;61.90
2036;BME280;23642;42.658;23.350;2023-03-19T07:42:36;52615.06;;;-146.31;62.23
2036;BME280;23642;42.658;23.350;2023-03-19T07:45:03;52629.53;;;-146.31;61.67
2036;BME280;23642;42.658;23.350;2023-03-19T07:47:30;52650.16;;;-146.31;61.72
2036;BME280;23642;42.658;23.350;2023-03-19T07:49:57;52703.81;;;-146.31;61.32
2036;BME280;23642;42.658;23.350;2023-03-19T07:52:24;52703.81;;;-146.31;61.05
2036;BME280;23642;42.658;23.350;2023-03-19T07:54:52;52749.22;;;-146.31;60.46
2036;BME280;23642;42.658;23.350;2023-03-19T07:57:20;52753.34;;;-146.31;59.38
2036;BME280;23642;42.658;23.350;2023-03-19T07:59:47;52776.06;;;-146.31;58.23
2036;BME280;23642;42.658;23.350;2023-03-19T08:02:13;52819.38;;;-146.31;57.79
2036;BME280;23642;42.658;23.350;2023-03-19T08:04:40;52792.56;;;-146.31;58.16
2036;BME280;23642;42.658;23.350;2023-03-19T08:07:08;52883.38;;;-146.31;57.04
2036;BME280;23642;42.658;23.350;2023-03-19T08:09:37;52972.13;;;-146.31;56.61
2036;BME280;23642;42.658;23.350;2023-03-19T08:12:07;52924.66;;;-146.31;56.63
2036;BME280;23642;42.658;23.350;2023-03-19T08:14:34;52901.94;;;-146.31;57.11
2036;BME280;23642;42.658;23.350;2023-03-19T08:17:01;52908.13;;;-146.31;56.41
2036;BME280;23642;42.658;23.350;2023-03-19T08:19:28;52990.69;;;-146.31;54.93
2036;BME280;23642;42.658;23.350;2023-03-19T08:21:54;53005.16;;;-146.31;54.90
2036;BME280;23642;42.658;23.350;2023-03-19T08:24:21;53065.00;;;-146.31;55.49
2036;BME280;23642;42.658;23.350;2023-03-19T08:26:49;53062.94;;;-146.31;54.66
2036;BME280;23642;42.658;23.350;2023-03-19T08:29:17;53075.31;;;-146.31;54.47
2036;BME280;23642;42.658;23.350;2023-03-19T08:31:44;53157.88;;;-146.31;54.69
2036;BME280;23642;42.658;23.350;2023-03-19T08:34:11;53131.03;;;-146.31;54.77
2036;BME280;23642;42.658;23.350;2023-03-19T08:36:37;53139.31;;;-146.31;54.53
2036;BME280;23642;42.658;23.350;2023-03-19T08:39:04;53120.72;;;-146.31;54.26
2036;BME280;23642;42.658;23.350;2023-03-19T08:41:31;53122.78;;;-146.31;53.93
2036;BME280;23642;42.658;23.350;2023-03-19T08:43:58;53164.06;;;-146.31;52.33
2036;BME280;23642;42.658;23.350;2023-03-19T08:46:26;53228.06;;;-146.31;52.08
2036;BME280;23642;42.658;23.350;2023-03-19T08:48:54;53345.72;;;-146.31;51.68
2036;BME280;23642;42.658;23.350;2023-03-19T08:51:21;53323.00;;;-146.31;51.94
2036;BME280;23642;42.658;23.350;2023-03-19T08:53:50;53308.56;;;-146.31;51.48
2036;BME280;23642;42.658;23.350;2023-03-19T08:56:17;53329.19;;;-146.31;50.49
2036;BME280;23642;42.658;23.350;2023-03-19T08:58:44;53370.47;;;-146.31;50.78
2036;BME280;23642;42.658;23.350;2023-03-19T09:01:12;53362.22;;;-146.31;49.94
2036;BME280;23642;42.658;23.350;2023-03-19T09:03:42;53455.13;;;-146.31;49.66
2036;BME280;23642;42.658;23.350;2023-03-19T09:06:11;53453.06;;;-146.31;49.46
2036;BME280;23642;42.658;23.350;2023-03-19T09:08:39;53448.91;;;-146.31;50.08
2036;BME280;23642;42.658;23.350;2023-03-19T09:11:07;53498.47;;;-146.31;49.66
2036;BME280;23642;42.658;23.350;2023-03-19T09:13:34;53554.19;;;-146.31;49.56
2036;BME280;23642;42.658;23.350;2023-03-19T09:16:01;53581.03;;;-146.31;49.79
2036;BME280;23642;42.658;23.350;2023-03-19T09:18:28;53607.88;;;-146.31;48.15
2036;BME280;23642;42.658;23.350;2023-03-19T09:20:57;53636.78;;;-146.31;48.31
2036;BME280;23642;42.658;23.350;2023-03-19T09:23:24;53688.38;;;-146.31;47.54
2036;BME280;23642;42.658;23.350;2023-03-19T09:25:50;53696.63;;;-146.31;48.08
2036;BME280;23642;42.658;23.350;2023-03-19T09:28:17;53700.75;;;-146.31;47.31
2036;BME280;23642;42.658;23.350;2023-03-19T09:30:45;53752.38;;;-146.31;47.34
2036;BME280;23642;42.658;23.350;2023-03-19T09:33:12;53762.69;;;-146.31;46.84
2036;BME280;23642;42.658;23.350;2023-03-19T09:35:39;53746.19;;;-146.31;46.63
2036;BME280;23642;42.658;23.350;2023-03-19T09:38:08;53816.38;;;-146.31;45.81
2036;BME280;23642;42.658;23.350;2023-03-19T09:40:37;53820.50;;;-146.31;45.92
2036;BME280;23642;42.658;23.350;2023-03-19T09:43:17;53832.88;;;-146.31;46.24
2036;BME280;23642;42.658;23.350;2023-03-19T09:45:47;53878.31;;;-146.31;46.39
2036;BME280;23642;42.658;23.350;2023-03-19T09:48:19;53917.53;;;-146.31;46.53
2036;BME280;23642;42.658;23.350;2023-03-19T09:50:53;53956.75;;;-146.31;46.21
2036;BME280;23642;42.658;23.350;2023-03-19T09:53:29;53936.13;;;-146.31;46.50
2036;BME280;23642;42.658;23.350;2023-03-19T09:56:04;54002.19;;;-146.31;45.44
2036;BME280;23642;42.658;23.350;2023-03-19T09:58:34;54035.22;;;-146.31;44.91
2036;BME280;23642;42.658;23.350;2023-03-19T10:01:02;54039.34;;;-146.31;44.69
2036;BME280;23642;42.658;23.350;2023-03-19T10:03:40;54080.63;;;-146.31;43.54
2036;BME280;23642;42.658;23.350;2023-03-19T10:06:20;54117.78;;;-146.31;43.79
2036;BME280;23642;42.658;23.350;2023-03-19T10:09:02;54146.69;;;-146.31;43.56
2036;BME280;23642;42.658;23.350;2023-03-19T10:11:44;54357.31;;;-146.31;43.06
2036;BME280;23642;42.658;23.350;2023-03-19T10:14:28;54406.84;;;-146.31;43.17
2036;BME280;23642;42.658;23.350;2023-03-19T10:17:02;54446.09;;;-146.31;43.55
2036;BME280;23642;42.658;23.350;2023-03-19T10:19:37;54448.16;;;-146.31;43.48
2036;BME280;23642;42.658;23.350;2023-03-19T10:22:09;54501.84;;;-146.31;42.51
2036;BME280;23642;42.658;23.350;2023-03-19T10:24:39;54505.97;;;-146.31;42.81
2036;BME280;23642;42.658;23.350;2023-03-19T10:27:09;54588.56;;;-146.31;42.44
2036;BME280;23642;42.658;23.350;2023-03-19T10:29:38;54621.59;;;-146.31;42.79
2036;BME280;23642;42.658;23.350;2023-03-19T10:32:14;54592.69;;;-146.31;42.31
2036;BME280;23642;42.658;23.350;2023-03-19T10:34:44;54646.38;;;-146.31;42.47
2036;BME280;23642;42.658;23.350;2023-03-19T10:37:14;54652.59;;;-146.31;42.71
2036;BME280;23642;42.658;23.350;2023-03-19T10:39:43;54683.56;;;-146.31;41.78
2036;BME280;23642;42.658;23.350;2023-03-19T10:42:33;54646.38;;;-146.31;42.00
2036;BME280;23642;42.658;23.350;2023-03-19T10:45:15;54662.91;;;-146.31;41.46
2036;BME280;23642;42.658;23.350;2023-03-19T10:47:44;54710.41;;;-146.31;41.29
2036;BME280;23642;42.658;23.350;2023-03-19T10:50:15;54710.41;;;-146.31;41.62
2036;BME280;23642;42.658;23.350;2023-03-19T10:52:43;54766.16;;;-146.31;41.41
2036;BME280;23642;42.658;23.350;2023-03-19T10:55:14;54735.19;;;-146.31;40.60
2036;BME280;23642;42.658;23.350;2023-03-19T10:57:44;54815.72;;;-146.31;40.59
2036;BME280;23642;42.658;23.350;2023-03-19T11:00:15;54782.69;;;-146.31;41.46
2036;BME280;23642;42.658;23.350;2023-03-19T11:02:46;54772.34;;;-146.31;41.50
2036;BME280;23642;42.658;23.350;2023-03-19T11:05:24;54739.31;;;-146.31;40.61
2036;BME280;23642;42.658;23.350;2023-03-19T11:07:54;54795.06;;;-146.31;39.09
2036;BME280;23642;42.658;23.350;2023-03-19T11:10:26;54832.25;;;-146.31;39.64
2036;BME280;23642;42.658;23.350;2023-03-19T11:12:55;54811.59;;;-146.31;39.35
2036;BME280;23642;42.658;23.350;2023-03-19T11:15:27;54854.94;;;-146.31;38.44
2036;BME280;23642;42.658;23.350;2023-03-19T11:17:56;54916.91;;;-146.31;38.48
2036;BME280;23642;42.658;23.350;2023-03-19T11:20:28;54931.38;;;-146.31;38.37
2036;BME280;23642;42.658;23.350;2023-03-19T11:22:56;54945.81;;;-146.31;39.85
2036;BME280;23642;42.658;23.350;2023-03-19T11:25:30;54956.16;;;-146.31;38.63
2036;BME280;23642;42.658;23.350;2023-03-19T11:28:01;54943.75;;;-146.31;38.50
2036;BME280;23642;42.658;23.350;2023-03-19T11:30:39;54958.22;;;-146.31;38.14
2036;BME280;23642;42.658;23.350;2023-03-19T11:33:14;54952.00;;;-146.31;38.10
2036;BME280;23642;42.658;23.350;2023-03-19T11:35:50;54939.63;;;-146.31;38.33
2036;BME280;23642;42.658;23.350;2023-03-19T11:38:24;54918.97;;;-146.31;37.92
2036;BME280;23642;42.658;23.350;2023-03-19T11:41:01;54945.81;;;-146.31;37.82
2036;BME280;23642;42.658;23.350;2023-03-19T11:43:43;54935.50;;;-146.31;38.00
2036;BME280;23642;42.658;23.350;2023-03-19T11:46:34;54941.69;;;-146.31;37.73
2036;BME280;23642;42.658;23.350;2023-03-19T11:49:33;55009.84;;;-146.31;36.79
2036;BME280;23642;42.658;23.350;2023-03-19T11:52:11;55032.56;;;-146.31;37.02
2036;BME280;23642;42.658;23.350;2023-03-19T11:54:48;55038.75;;;-146.31;37.27
2036;BME280;23642;42.658;23.350;2023-03-19T11:57:29;55073.84;;;-146.31;36.81
2036;BME280;23642;42.658;23.350;2023-03-19T12:00:06;55067.66;;;-146.31;36.82
2036;BME280;23642;42.658;23.350;2023-03-19T12:02:58;55075.91;;;-146.31;36.37
2036;BME280;23642;42.658;23.350;2023-03-19T12:05:34;55069.72;;;-146.31;36.75
2036;BME280;23642;42.658;23.350;2023-03-19T12:08:18;55075.91;;;-146.31;36.28
2036;BME280;23642;42.658;23.350;2023-03-19T12:11:02;55113.09;;;-146.31;36.44
2036;BME280;23642;42.658;23.350;2023-03-19T12:13:47;55096.56;;;-146.31;36.56
2036;BME280;23642;42.658;23.350;2023-03-19T12:16:25;55073.84;;;-146.31;36.57
2036;BME280;23642;42.658;23.350;2023-03-19T12:19:12;55055.28;;;-146.31;36.45
2036;BME280;23642;42.658;23.350;2023-03-19T12:21:52;55061.47;;;-146.31;36.06
2036;BME280;23642;42.658;23.350;2023-03-19T12:24:27;55094.50;;;-146.31;35.90
2036;BME280;23642;42.658;23.350;2023-03-19T12:27:05;55051.13;;;-146.31;36.67
2036;BME280;23642;42.658;23.350;2023-03-19T12:29:43;54989.19;;;-146.31;37.44
2036;BME280;23642;42.658;23.350;2023-03-19T12:32:21;54985.06;;;-146.31;37.35
2036;BME280;23642;42.658;23.350;2023-03-19T12:34:54;55049.06;;;-146.31;35.48
2036;BME280;23642;42.658;23.350;2023-03-19T12:37:28;55059.41;;;-146.31;35.31
2036;BME280;23642;42.658;23.350;2023-03-19T12:40:05;55086.25;;;-146.31;35.41
2036;BME280;23642;42.658;23.350;2023-03-19T12:42:39;55129.63;;;-146.31;35.60
2036;BME280;23642;42.658;23.350;2023-03-19T12:45:22;55100.72;;;-146.31;35.77
2036;BME280;23642;42.658;23.350;2023-03-19T12:47:56;55084.19;;;-146.31;35.14
2036;BME280;23642;42.658;23.350;2023-03-19T12:50:26;55106.91;;;-146.31;35.44
2036;BME280;23642;42.658;23.350;2023-03-19T12:52:57;55144.06;;;-146.31;35.15